sensor_id;sensor_type;location;lat;lon;timestamp;temperature;humidity
72206;DHT22;60111;48.286;7.812;2024-02-15T00:01:51;8.50;85.20
72206;DHT22;60111;48.286;7.812;2024-02-15T00:04:24;8.40;85.30
72206;DHT22;60111;48.286;7.812;2024-02-15T00:06:56;8.30;85.10
72206;DHT22;60111;48.286;7.812;2024-02-15T00:09:29;8.10;84.90
72206;DHT22;60111;48.286;7.812;2024-02-15T00:12:01;8.00;84.80
72206;DHT22;60111;48.286;7.812;2024-02-15T00:14:34;7.90;85.30
72206;DHT22;60111;48.286;7.812;2024-02-15T00:17:08;7.90;85.70
72206;DHT22;60111;48.286;7.812;2024-02-15T00:19:41;7.80;86.00
72206;DHT22;60111;48.286;7.812;2024-02-15T00:22:14;7.80;86.20
72206;DHT22;60111;48.286;7.812;2024-02-15T00:24:47;7.80;86.20
72206;DHT22;60111;48.286;7.812;2024-02-15T00:27:22;7.70;86.30
72206;DHT22;60111;48.286;7.812;2024-02-15T00:29:55;7.70;86.20
72206;DHT22;60111;48.286;7.812;2024-02-15T00:32:27;7.60;86.20
72206;DHT22;60111;48.286;7.812;2024-02-15T00:35:00;7.60;86.40
72206;DHT22;60111;48.286;7.812;2024-02-15T00:37:33;7.50;86.70
72206;DHT22;60111;48.286;7.812;2024-02-15T00:40:06;7.50;86.80
72206;DHT22;60111;48.286;7.812;2024-02-15T00:42:41;7.40;87.00
72206;DHT22;60111;48.286;7.812;2024-02-15T00:45:13;7.40;87.10
72206;DHT22;60111;48.286;7.812;2024-02-15T00:47:46;7.40;87.10
72206;DHT22;60111;48.286;7.812;2024-02-15T00:50:18;7.30;87.20
72206;DHT22;60111;48.286;7.812;2024-02-15T00:52:51;7.30;87.30
72206;DHT22;60111;48.286;7.812;2024-02-15T00:55:23;7.30;87.30
72206;DHT22;60111;48.286;7.812;2024-02-15T00:57:56;7.30;87.30
72206;DHT22;60111;48.286;7.812;2024-02-15T01:00:29;7.20;87.50
72206;DHT22;60111;48.286;7.812;2024-02-15T01:03:02;7.20;87.80
72206;DHT22;60111;48.286;7.812;2024-02-15T01:05:35;7.30;88.30
72206;DHT22;60111;48.286;7.812;2024-02-15T01:08:09;7.40;88.60
72206;DHT22;60111;48.286;7.812;2024-02-15T01:10:42;7.40;88.70
72206;DHT22;60111;48.286;7.812;2024-02-15T01:13:15;7.40;88.90
72206;DHT22;60111;48.286;7.812;2024-02-15T01:15:47;7.50;89.10
72206;DHT22;60111;48.286;7.812;2024-02-15T01:18:20;7.60;89.10
72206;DHT22;60111;48.286;7.812;2024-02-15T01:20:52;7.60;89.10
72206;DHT22;60111;48.286;7.812;2024-02-15T01:23:26;7.60;88.90
72206;DHT22;60111;48.286;7.812;2024-02-15T01:25:58;7.60;88.20
72206;DHT22;60111;48.286;7.812;2024-02-15T01:28:32;7.50;88.10
72206;DHT22;60111;48.286;7.812;2024-02-15T01:31:05;7.40;88.20
72206;DHT22;60111;48.286;7.812;2024-02-15T01:33:38;7.40;88.40
72206;DHT22;60111;48.286;7.812;2024-02-15T01:36:16;7.40;88.30
72206;DHT22;60111;48.286;7.812;2024-02-15T01:38:49;7.40;88.30
72206;DHT22;60111;48.286;7.812;2024-02-15T01:41:21;7.40;88.30
72206;DHT22;60111;48.286;7.812;2024-02-15T01:43:54;7.40;88.20
72206;DHT22;60111;48.286;7.812;2024-02-15T01:46:27;7.40;88.40
72206;DHT22;60111;48.286;7.812;2024-02-15T01:49:01;7.50;88.60
72206;DHT22;60111;48.286;7.812;2024-02-15T01:51:34;7.50;88.80
72206;DHT22;60111;48.286;7.812;2024-02-15T01:54:09;7.60;89.00
72206;DHT22;60111;48.286;7.812;2024-02-15T01:56:41;7.60;88.50
72206;DHT22;60111;48.286;7.812;2024-02-15T01:59:18;7.50;88.00
72206;DHT22;60111;48.286;7.812;2024-02-15T02:01:51;7.40;87.80
72206;DHT22;60111;48.286;7.812;2024-02-15T02:04:24;7.30;87.80
72206;DHT22;60111;48.286;7.812;2024-02-15T02:06:57;7.20;87.70
72206;DHT22;60111;48.286;7.812;2024-02-15T02:09:30;7.10;87.70
72206;DHT22;60111;48.286;7.812;2024-02-15T02:12:03;7.00;87.70
72206;DHT22;60111;48.286;7.812;2024-02-15T02:14:35;6.90;87.80
72206;DHT22;60111;48.286;7.812;2024-02-15T02:17:12;6.80;87.90
72206;DHT22;60111;48.286;7.812;2024-02-15T02:19:45;6.70;87.90
72206;DHT22;60111;48.286;7.812;2024-02-15T02:22:20;6.70;88.00
72206;DHT22;60111;48.286;7.812;2024-02-15T02:27:34;6.50;87.80
72206;DHT22;60111;48.286;7.812;2024-02-15T02:30:12;6.40;87.90
72206;DHT22;60111;48.286;7.812;2024-02-15T02:32:53;6.40;87.90
72206;DHT22;60111;48.286;7.812;2024-02-15T02:35:26;6.40;88.00
72206;DHT22;60111;48.286;7.812;2024-02-15T02:37:59;6.30;88.10
72206;DHT22;60111;48.286;7.812;2024-02-15T02:40:32;6.30;88.20
72206;DHT22;60111;48.286;7.812;2024-02-15T02:43:05;6.20;88.30
72206;DHT22;60111;48.286;7.812;2024-02-15T02:45:38;6.30;88.40
72206;DHT22;60111;48.286;7.812;2024-02-15T02:48:11;6.20;88.50
72206;DHT22;60111;48.286;7.812;2024-02-15T02:50:44;6.30;88.70
72206;DHT22;60111;48.286;7.812;2024-02-15T02:53:17;6.30;88.90
72206;DHT22;60111;48.286;7.812;2024-02-15T02:55:51;6.30;89.10
72206;DHT22;60111;48.286;7.812;2024-02-15T02:58:23;6.30;89.10
72206;DHT22;60111;48.286;7.812;2024-02-15T03:00:56;6.30;89.20
72206;DHT22;60111;48.286;7.812;2024-02-15T03:03:31;6.30;89.10
72206;DHT22;60111;48.286;7.812;2024-02-15T03:06:04;6.30;89.10
72206;DHT22;60111;48.286;7.812;2024-02-15T03:08:37;6.30;89.30
72206;DHT22;60111;48.286;7.812;2024-02-15T03:11:10;6.40;89.40
72206;DHT22;60111;48.286;7.812;2024-02-15T03:13:43;6.30;89.40
72206;DHT22;60111;48.286;7.812;2024-02-15T03:16:16;6.30;89.20
72206;DHT22;60111;48.286;7.812;2024-02-15T03:18:49;6.20;89.00
72206;DHT22;60111;48.286;7.812;2024-02-15T03:21:22;6.10;88.90
72206;DHT22;60111;48.286;7.812;2024-02-15T03:23:56;6.10;89.00
72206;DHT22;60111;48.286;7.812;2024-02-15T03:26:32;6.10;89.10
72206;DHT22;60111;48.286;7.812;2024-02-15T03:29:11;6.00;89.20
72206;DHT22;60111;48.286;7.812;2024-02-15T03:31:44;6.00;89.40
72206;DHT22;60111;48.286;7.812;2024-02-15T03:34:17;5.90;89.40
72206;DHT22;60111;48.286;7.812;2024-02-15T03:36:50;5.90;89.40
72206;DHT22;60111;48.286;7.812;2024-02-15T03:39:24;5.90;89.40
72206;DHT22;60111;48.286;7.812;2024-02-15T03:41:57;5.90;89.30
72206;DHT22;60111;48.286;7.812;2024-02-15T03:44:30;5.80;89.20
72206;DHT22;60111;48.286;7.812;2024-02-15T03:47:03;5.80;89.30
72206;DHT22;60111;48.286;7.812;2024-02-15T03:49:36;5.80;89.50
72206;DHT22;60111;48.286;7.812;2024-02-15T03:52:09;5.80;89.70
72206;DHT22;60111;48.286;7.812;2024-02-15T03:54:42;5.80;89.90
72206;DHT22;60111;48.286;7.812;2024-02-15T03:57:14;5.80;90.10
72206;DHT22;60111;48.286;7.812;2024-02-15T03:59:48;5.80;90.40
72206;DHT22;60111;48.286;7.812;2024-02-15T04:02:29;5.90;90.50
72206;DHT22;60111;48.286;7.812;2024-02-15T04:05:02;5.90;90.50
72206;DHT22;60111;48.286;7.812;2024-02-15T04:07:36;5.90;90.60
72206;DHT22;60111;48.286;7.812;2024-02-15T04:10:10;5.80;90.60
72206;DHT22;60111;48.286;7.812;2024-02-15T04:12:43;5.80;90.50
72206;DHT22;60111;48.286;7.812;2024-02-15T04:15:16;5.80;90.70
72206;DHT22;60111;48.286;7.812;2024-02-15T04:17:50;5.70;90.70
72206;DHT22;60111;48.286;7.812;2024-02-15T04:20:24;5.70;90.80
72206;DHT22;60111;48.286;7.812;2024-02-15T04:22:58;5.70;90.80
72206;DHT22;60111;48.286;7.812;2024-02-15T04:25:31;5.60;89.80
72206;DHT22;60111;48.286;7.812;2024-02-15T04:28:05;5.50;89.60
72206;DHT22;60111;48.286;7.812;2024-02-15T04:30:39;5.50;89.50
72206;DHT22;60111;48.286;7.812;2024-02-15T04:33:12;5.40;89.70
72206;DHT22;60111;48.286;7.812;2024-02-15T04:35:46;5.30;89.80
72206;DHT22;60111;48.286;7.812;2024-02-15T04:38:20;5.30;89.70
72206;DHT22;60111;48.286;7.812;2024-02-15T04:40:53;5.20;89.70
72206;DHT22;60111;48.286;7.812;2024-02-15T04:43:26;5.20;89.80
72206;DHT22;60111;48.286;7.812;2024-02-15T04:45:59;5.10;90.00
72206;DHT22;60111;48.286;7.812;2024-02-15T04:48:32;5.10;90.20
72206;DHT22;60111;48.286;7.812;2024-02-15T04:51:06;5.10;90.50
72206;DHT22;60111;48.286;7.812;2024-02-15T04:53:38;5.10;90.70
72206;DHT22;60111;48.286;7.812;2024-02-15T04:56:13;5.20;91.00
72206;DHT22;60111;48.286;7.812;2024-02-15T04:58:46;5.30;91.10
72206;DHT22;60111;48.286;7.812;2024-02-15T05:01:19;5.30;91.30
72206;DHT22;60111;48.286;7.812;2024-02-15T05:03:51;5.40;91.40
72206;DHT22;60111;48.286;7.812;2024-02-15T05:06:25;5.40;91.50
72206;DHT22;60111;48.286;7.812;2024-02-15T05:09:00;5.40;91.50
72206;DHT22;60111;48.286;7.812;2024-02-15T05:11:32;5.40;91.60
72206;DHT22;60111;48.286;7.812;2024-02-15T05:14:07;5.40;91.70
72206;DHT22;60111;48.286;7.812;2024-02-15T05:16:41;5.40;91.90
72206;DHT22;60111;48.286;7.812;2024-02-15T05:19:18;5.40;91.80
72206;DHT22;60111;48.286;7.812;2024-02-15T05:21:50;5.40;91.90
72206;DHT22;60111;48.286;7.812;2024-02-15T05:24:23;5.40;91.60
72206;DHT22;60111;48.286;7.812;2024-02-15T05:26:55;5.40;91.40
72206;DHT22;60111;48.286;7.812;2024-02-15T05:29:28;5.40;90.90
72206;DHT22;60111;48.286;7.812;2024-02-15T05:32:03;5.30;90.50
72206;DHT22;60111;48.286;7.812;2024-02-15T05:34:35;5.20;90.60
72206;DHT22;60111;48.286;7.812;2024-02-15T05:37:10;5.20;90.60
72206;DHT22;60111;48.286;7.812;2024-02-15T05:39:42;5.20;90.40
72206;DHT22;60111;48.286;7.812;2024-02-15T05:42:16;5.10;90.10
72206;DHT22;60111;48.286;7.812;2024-02-15T05:44:49;5.10;90.30
72206;DHT22;60111;48.286;7.812;2024-02-15T05:47:22;5.10;90.50
72206;DHT22;60111;48.286;7.812;2024-02-15T05:49:55;5.10;90.40
72206;DHT22;60111;48.286;7.812;2024-02-15T05:52:28;5.10;90.20
72206;DHT22;60111;48.286;7.812;2024-02-15T05:55:01;5.10;90.00
72206;DHT22;60111;48.286;7.812;2024-02-15T05:57:34;5.10;90.10
72206;DHT22;60111;48.286;7.812;2024-02-15T06:03:01;5.10;90.70
72206;DHT22;60111;48.286;7.812;2024-02-15T06:05:34;5.20;91.00
72206;DHT22;60111;48.286;7.812;2024-02-15T06:08:06;5.20;91.20
72206;DHT22;60111;48.286;7.812;2024-02-15T06:10:39;5.30;91.40
72206;DHT22;60111;48.286;7.812;2024-02-15T06:13:12;5.30;91.60
72206;DHT22;60111;48.286;7.812;2024-02-15T06:15:45;5.40;91.70
72206;DHT22;60111;48.286;7.812;2024-02-15T06:18:22;5.40;91.90
72206;DHT22;60111;48.286;7.812;2024-02-15T06:21:00;5.50;91.80
72206;DHT22;60111;48.286;7.812;2024-02-15T06:23:33;5.50;91.90
72206;DHT22;60111;48.286;7.812;2024-02-15T06:26:07;5.60;91.90
72206;DHT22;60111;48.286;7.812;2024-02-15T06:28:39;5.60;91.90
72206;DHT22;60111;48.286;7.812;2024-02-15T06:31:31;5.70;91.90
72206;DHT22;60111;48.286;7.812;2024-02-15T06:34:22;5.70;91.80
72206;DHT22;60111;48.286;7.812;2024-02-15T06:37:34;5.70;91.80
72206;DHT22;60111;48.286;7.812;2024-02-15T06:40:07;5.80;91.70
72206;DHT22;60111;48.286;7.812;2024-02-15T06:42:40;5.80;91.50
72206;DHT22;60111;48.286;7.812;2024-02-15T06:45:13;5.70;91.20
72206;DHT22;60111;48.286;7.812;2024-02-15T06:47:46;5.70;90.90
72206;DHT22;60111;48.286;7.812;2024-02-15T06:50:18;5.60;90.50
72206;DHT22;60111;48.286;7.812;2024-02-15T06:52:51;5.50;90.80
72206;DHT22;60111;48.286;7.812;2024-02-15T06:55:24;5.50;90.90
72206;DHT22;60111;48.286;7.812;2024-02-15T06:57:57;5.40;90.70
72206;DHT22;60111;48.286;7.812;2024-02-15T07:00:29;5.40;90.40
72206;DHT22;60111;48.286;7.812;2024-02-15T07:05:56;5.30;91.20
72206;DHT22;60111;48.286;7.812;2024-02-15T07:08:29;5.30;91.40
72206;DHT22;60111;48.286;7.812;2024-02-15T07:11:01;5.40;91.60
72206;DHT22;60111;48.286;7.812;2024-02-15T07:13:38;5.40;91.60
72206;DHT22;60111;48.286;7.812;2024-02-15T07:16:10;5.50;91.80
72206;DHT22;60111;48.286;7.812;2024-02-15T07:18:43;5.50;92.00
72206;DHT22;60111;48.286;7.812;2024-02-15T07:21:17;5.50;92.20
72206;DHT22;60111;48.286;7.812;2024-02-15T07:23:51;5.60;92.30
72206;DHT22;60111;48.286;7.812;2024-02-15T07:26:26;5.70;92.40
72206;DHT22;60111;48.286;7.812;2024-02-15T07:28:59;5.80;92.50
72206;DHT22;60111;48.286;7.812;2024-02-15T07:31:32;5.90;92.50
72206;DHT22;60111;48.286;7.812;2024-02-15T07:34:05;6.00;92.40
72206;DHT22;60111;48.286;7.812;2024-02-15T07:36:38;6.00;92.40
72206;DHT22;60111;48.286;7.812;2024-02-15T07:39:12;6.10;92.40
72206;DHT22;60111;48.286;7.812;2024-02-15T07:41:46;6.20;92.40
72206;DHT22;60111;48.286;7.812;2024-02-15T07:44:20;6.20;92.50
72206;DHT22;60111;48.286;7.812;2024-02-15T07:46:54;6.40;92.50
72206;DHT22;60111;48.286;7.812;2024-02-15T07:49:27;6.50;92.20
72206;DHT22;60111;48.286;7.812;2024-02-15T07:52:00;6.50;91.90
72206;DHT22;60111;48.286;7.812;2024-02-15T07:54:33;6.60;91.70
72206;DHT22;60111;48.286;7.812;2024-02-15T07:57:06;6.70;91.60
72206;DHT22;60111;48.286;7.812;2024-02-15T07:59:40;6.70;91.40
72206;DHT22;60111;48.286;7.812;2024-02-15T08:02:13;6.80;90.30
72206;DHT22;60111;48.286;7.812;2024-02-15T08:04:47;6.90;89.50
72206;DHT22;60111;48.286;7.812;2024-02-15T08:07:20;7.00;88.90
72206;DHT22;60111;48.286;7.812;2024-02-15T08:09:52;7.10;88.80
72206;DHT22;60111;48.286;7.812;2024-02-15T08:12:25;7.20;89.30
72206;DHT22;60111;48.286;7.812;2024-02-15T08:14:58;7.20;89.80
72206;DHT22;60111;48.286;7.812;2024-02-15T08:17:30;7.30;90.00
72206;DHT22;60111;48.286;7.812;2024-02-15T08:20:03;7.40;90.10
72206;DHT22;60111;48.286;7.812;2024-02-15T08:22:39;7.50;90.20
72206;DHT22;60111;48.286;7.812;2024-02-15T08:25:13;7.50;90.30
72206;DHT22;60111;48.286;7.812;2024-02-15T08:27:48;7.60;89.80
72206;DHT22;60111;48.286;7.812;2024-02-15T08:30:22;7.80;89.20
72206;DHT22;60111;48.286;7.812;2024-02-15T08:32:55;8.00;88.30
72206;DHT22;60111;48.286;7.812;2024-02-15T08:35:27;8.10;87.80
72206;DHT22;60111;48.286;7.812;2024-02-15T08:38:00;8.30;87.40
72206;DHT22;60111;48.286;7.812;2024-02-15T08:40:34;8.40;87.10
72206;DHT22;60111;48.286;7.812;2024-02-15T08:43:06;8.50;86.60
72206;DHT22;60111;48.286;7.812;2024-02-15T08:45:39;8.60;86.80
72206;DHT22;60111;48.286;7.812;2024-02-15T08:48:13;8.80;86.90
72206;DHT22;60111;48.286;7.812;2024-02-15T08:50:45;8.90;86.70
72206;DHT22;60111;48.286;7.812;2024-02-15T08:53:18;9.00;86.90
72206;DHT22;60111;48.286;7.812;2024-02-15T08:55:51;9.10;86.80
72206;DHT22;60111;48.286;7.812;2024-02-15T08:58:24;9.20;85.20
72206;DHT22;60111;48.286;7.812;2024-02-15T09:00:58;9.20;84.90
72206;DHT22;60111;48.286;7.812;2024-02-15T09:03:31;9.30;84.70
72206;DHT22;60111;48.286;7.812;2024-02-15T09:06:10;9.40;84.30
72206;DHT22;60111;48.286;7.812;2024-02-15T09:08:43;9.40;84.30
72206;DHT22;60111;48.286;7.812;2024-02-15T09:11:15;9.30;84.20
72206;DHT22;60111;48.286;7.812;2024-02-15T09:13:48;9.40;84.60
72206;DHT22;60111;48.286;7.812;2024-02-15T09:16:22;9.50;84.80
72206;DHT22;60111;48.286;7.812;2024-02-15T09:18:55;9.60;84.70
72206;DHT22;60111;48.286;7.812;2024-02-15T09:21:28;9.70;83.70
72206;DHT22;60111;48.286;7.812;2024-02-15T09:24:01;9.80;83.70
72206;DHT22;60111;48.286;7.812;2024-02-15T09:26:33;10.00;83.10
72206;DHT22;60111;48.286;7.812;2024-02-15T09:29:07;10.10;82.80
72206;DHT22;60111;48.286;7.812;2024-02-15T09:31:40;10.20;82.50
72206;DHT22;60111;48.286;7.812;2024-02-15T09:34:14;10.30;81.90
72206;DHT22;60111;48.286;7.812;2024-02-15T09:36:46;10.40;80.70
72206;DHT22;60111;48.286;7.812;2024-02-15T09:39:19;10.50;80.90
72206;DHT22;60111;48.286;7.812;2024-02-15T09:41:52;10.50;80.40
72206;DHT22;60111;48.286;7.812;2024-02-15T09:44:26;10.60;80.30
72206;DHT22;60111;48.286;7.812;2024-02-15T09:47:04;10.70;80.00
72206;DHT22;60111;48.286;7.812;2024-02-15T09:49:38;10.70;80.20
72206;DHT22;60111;48.286;7.812;2024-02-15T09:52:11;10.80;79.80
72206;DHT22;60111;48.286;7.812;2024-02-15T09:54:46;10.80;80.50
72206;DHT22;60111;48.286;7.812;2024-02-15T09:57:20;10.90;79.90
72206;DHT22;60111;48.286;7.812;2024-02-15T09:59:53;11.00;78.40
72206;DHT22;60111;48.286;7.812;2024-02-15T10:02:27;11.00;77.20
72206;DHT22;60111;48.286;7.812;2024-02-15T10:05:00;11.10;77.70
72206;DHT22;60111;48.286;7.812;2024-02-15T10:07:33;11.20;77.00
72206;DHT22;60111;48.286;7.812;2024-02-15T10:10:20;11.30;76.80
72206;DHT22;60111;48.286;7.812;2024-02-15T10:12:54;11.40;76.60
72206;DHT22;60111;48.286;7.812;2024-02-15T10:15:35;11.60;75.40
72206;DHT22;60111;48.286;7.812;2024-02-15T10:18:09;11.60;75.20
72206;DHT22;60111;48.286;7.812;2024-02-15T10:20:46;11.70;74.80
72206;DHT22;60111;48.286;7.812;2024-02-15T10:23:22;11.80;74.60
72206;DHT22;60111;48.286;7.812;2024-02-15T10:25:54;11.90;74.60
72206;DHT22;60111;48.286;7.812;2024-02-15T10:28:28;12.00;74.30
72206;DHT22;60111;48.286;7.812;2024-02-15T10:31:07;12.10;74.00
72206;DHT22;60111;48.286;7.812;2024-02-15T10:33:36;12.10;73.70
72206;DHT22;60111;48.286;7.812;2024-02-15T10:36:10;12.20;74.10
72206;DHT22;60111;48.286;7.812;2024-02-15T10:38:44;12.40;73.00
72206;DHT22;60111;48.286;7.812;2024-02-15T10:41:16;12.50;72.40
72206;DHT22;60111;48.286;7.812;2024-02-15T10:43:51;12.70;72.00
72206;DHT22;60111;48.286;7.812;2024-02-15T10:46:25;12.80;71.50
72206;DHT22;60111;48.286;7.812;2024-02-15T10:48:58;12.90;71.70
72206;DHT22;60111;48.286;7.812;2024-02-15T10:51:31;13.00;71.30
72206;DHT22;60111;48.286;7.812;2024-02-15T10:54:06;13.00;70.60
72206;DHT22;60111;48.286;7.812;2024-02-15T10:56:43;13.20;69.90
72206;DHT22;60111;48.286;7.812;2024-02-15T10:59:19;13.30;70.10
72206;DHT22;60111;48.286;7.812;2024-02-15T11:04:54;13.60;68.60
72206;DHT22;60111;48.286;7.812;2024-02-15T11:07:28;13.60;67.90
72206;DHT22;60111;48.286;7.812;2024-02-15T11:10:05;13.70;68.80
72206;DHT22;60111;48.286;7.812;2024-02-15T11:12:39;13.90;68.90
72206;DHT22;60111;48.286;7.812;2024-02-15T11:18:10;14.20;67.00
72206;DHT22;60111;48.286;7.812;2024-02-15T11:23:24;14.30;66.70
72206;DHT22;60111;48.286;7.812;2024-02-15T11:25:58;14.40;65.80
72206;DHT22;60111;48.286;7.812;2024-02-15T11:28:37;14.30;66.20
72206;DHT22;60111;48.286;7.812;2024-02-15T11:31:10;14.40;66.30
72206;DHT22;60111;48.286;7.812;2024-02-15T11:33:44;14.60;66.70
72206;DHT22;60111;48.286;7.812;2024-02-15T11:36:17;14.70;65.50
72206;DHT22;60111;48.286;7.812;2024-02-15T11:38:51;14.90;64.80
72206;DHT22;60111;48.286;7.812;2024-02-15T11:41:23;14.90;63.40
72206;DHT22;60111;48.286;7.812;2024-02-15T11:43:57;14.90;63.90
72206;DHT22;60111;48.286;7.812;2024-02-15T11:46:30;15.00;63.80
72206;DHT22;60111;48.286;7.812;2024-02-15T11:49:05;15.10;63.90
72206;DHT22;60111;48.286;7.812;2024-02-15T11:51:38;15.20;63.80
72206;DHT22;60111;48.286;7.812;2024-02-15T11:54:20;15.20;63.80
72206;DHT22;60111;48.286;7.812;2024-02-15T11:56:53;15.40;64.10
72206;DHT22;60111;48.286;7.812;2024-02-15T11:59:45;15.50;63.30
72206;DHT22;60111;48.286;7.812;2024-02-15T12:02:28;15.60;63.30
72206;DHT22;60111;48.286;7.812;2024-02-15T12:05:21;15.80;62.50
72206;DHT22;60111;48.286;7.812;2024-02-15T12:08:12;15.80;62.60
72206;DHT22;60111;48.286;7.812;2024-02-15T12:11:03;15.80;61.80
72206;DHT22;60111;48.286;7.812;2024-02-15T12:13:53;15.70;62.60
72206;DHT22;60111;48.286;7.812;2024-02-15T12:16:44;15.50;63.00
72206;DHT22;60111;48.286;7.812;2024-02-15T12:19:37;15.50;62.60
72206;DHT22;60111;48.286;7.812;2024-02-15T12:22:10;15.30;63.90
72206;DHT22;60111;48.286;7.812;2024-02-15T12:24:44;15.30;64.30
72206;DHT22;60111;48.286;7.812;2024-02-15T12:27:18;15.40;63.40
72206;DHT22;60111;48.286;7.812;2024-02-15T12:29:58;15.50;63.30
72206;DHT22;60111;48.286;7.812;2024-02-15T12:32:31;15.60;62.30
72206;DHT22;60111;48.286;7.812;2024-02-15T12:35:12;15.70;64.10
72206;DHT22;60111;48.286;7.812;2024-02-15T12:37:47;15.80;64.20
72206;DHT22;60111;48.286;7.812;2024-02-15T12:43:13;15.60;62.40
72206;DHT22;60111;48.286;7.812;2024-02-15T12:45:46;15.50;61.80
72206;DHT22;60111;48.286;7.812;2024-02-15T12:48:19;15.50;62.30
72206;DHT22;60111;48.286;7.812;2024-02-15T12:50:51;15.30;63.10
72206;DHT22;60111;48.286;7.812;2024-02-15T12:53:25;15.30;62.50
72206;DHT22;60111;48.286;7.812;2024-02-15T12:55:58;15.30;62.90
72206;DHT22;60111;48.286;7.812;2024-02-15T12:58:30;15.30;63.50
72206;DHT22;60111;48.286;7.812;2024-02-15T13:01:03;15.30;64.10
72206;DHT22;60111;48.286;7.812;2024-02-15T13:03:36;15.30;65.50
72206;DHT22;60111;48.286;7.812;2024-02-15T13:06:08;15.30;65.20
72206;DHT22;60111;48.286;7.812;2024-02-15T13:08:41;15.30;64.60
72206;DHT22;60111;48.286;7.812;2024-02-15T13:11:15;15.40;64.50
72206;DHT22;60111;48.286;7.812;2024-02-15T13:13:48;15.40;64.00
72206;DHT22;60111;48.286;7.812;2024-02-15T13:16:20;15.50;63.70
72206;DHT22;60111;48.286;7.812;2024-02-15T13:18:55;15.50;62.70
72206;DHT22;60111;48.286;7.812;2024-02-15T13:21:29;15.50;63.00
72206;DHT22;60111;48.286;7.812;2024-02-15T13:24:02;15.60;62.60
72206;DHT22;60111;48.286;7.812;2024-02-15T13:26:37;15.60;63.10
72206;DHT22;60111;48.286;7.812;2024-02-15T13:29:11;15.60;63.50
72206;DHT22;60111;48.286;7.812;2024-02-15T13:31:45;15.60;63.30
72206;DHT22;60111;48.286;7.812;2024-02-15T13:34:17;15.60;62.00
72206;DHT22;60111;48.286;7.812;2024-02-15T13:36:51;15.60;63.20
72206;DHT22;60111;48.286;7.812;2024-02-15T13:39:23;15.70;63.20
72206;DHT22;60111;48.286;7.812;2024-02-15T13:41:56;15.70;62.80
72206;DHT22;60111;48.286;7.812;2024-02-15T13:44:29;15.80;63.10
72206;DHT22;60111;48.286;7.812;2024-02-15T13:47:02;15.80;63.20
72206;DHT22;60111;48.286;7.812;2024-02-15T13:49:34;15.80;62.80
72206;DHT22;60111;48.286;7.812;2024-02-15T13:52:07;15.80;63.40
72206;DHT22;60111;48.286;7.812;2024-02-15T13:54:41;15.70;63.10
72206;DHT22;60111;48.286;7.812;2024-02-15T13:57:34;15.70;63.50
72206;DHT22;60111;48.286;7.812;2024-02-15T14:00:12;15.70;64.00
72206;DHT22;60111;48.286;7.812;2024-02-15T14:02:45;15.70;64.20
72206;DHT22;60111;48.286;7.812;2024-02-15T14:05:19;15.70;64.30
72206;DHT22;60111;48.286;7.812;2024-02-15T14:07:57;15.70;64.40
72206;DHT22;60111;48.286;7.812;2024-02-15T14:10:31;15.70;64.30
72206;DHT22;60111;48.286;7.812;2024-02-15T14:13:06;15.70;64.50
72206;DHT22;60111;48.286;7.812;2024-02-15T14:15:43;15.60;64.30
72206;DHT22;60111;48.286;7.812;2024-02-15T14:18:15;15.60;64.90
72206;DHT22;60111;48.286;7.812;2024-02-15T14:20:50;15.60;64.80
72206;DHT22;60111;48.286;7.812;2024-02-15T14:23:22;15.60;65.40
72206;DHT22;60111;48.286;7.812;2024-02-15T14:25:56;15.60;65.50
72206;DHT22;60111;48.286;7.812;2024-02-15T14:28:31;15.60;65.80
72206;DHT22;60111;48.286;7.812;2024-02-15T14:31:04;15.60;65.80
72206;DHT22;60111;48.286;7.812;2024-02-15T14:33:54;15.60;65.90
72206;DHT22;60111;48.286;7.812;2024-02-15T14:36:27;15.60;66.30
72206;DHT22;60111;48.286;7.812;2024-02-15T14:39:00;15.50;67.10
72206;DHT22;60111;48.286;7.812;2024-02-15T14:41:32;15.40;67.00
72206;DHT22;60111;48.286;7.812;2024-02-15T14:44:06;15.40;67.50
72206;DHT22;60111;48.286;7.812;2024-02-15T14:46:40;15.30;68.00
72206;DHT22;60111;48.286;7.812;2024-02-15T14:49:13;15.30;68.00
72206;DHT22;60111;48.286;7.812;2024-02-15T14:51:46;15.20;67.90
72206;DHT22;60111;48.286;7.812;2024-02-15T14:54:20;15.20;68.20
72206;DHT22;60111;48.286;7.812;2024-02-15T14:56:53;15.20;68.70
72206;DHT22;60111;48.286;7.812;2024-02-15T14:59:26;15.20;68.60
72206;DHT22;60111;48.286;7.812;2024-02-15T15:01:58;15.20;68.90
72206;DHT22;60111;48.286;7.812;2024-02-15T15:04:33;15.20;68.90
72206;DHT22;60111;48.286;7.812;2024-02-15T15:07:07;15.20;69.20
72206;DHT22;60111;48.286;7.812;2024-02-15T15:09:58;15.10;69.50
72206;DHT22;60111;48.286;7.812;2024-02-15T15:12:32;15.10;69.70
72206;DHT22;60111;48.286;7.812;2024-02-15T15:18:05;15.00;69.40
72206;DHT22;60111;48.286;7.812;2024-02-15T15:20:41;14.90;69.90
72206;DHT22;60111;48.286;7.812;2024-02-15T15:23:13;14.90;70.20
72206;DHT22;60111;48.286;7.812;2024-02-15T15:25:47;14.80;70.60
72206;DHT22;60111;48.286;7.812;2024-02-15T15:28:20;14.80;70.50
72206;DHT22;60111;48.286;7.812;2024-02-15T15:30:53;14.70;70.50
72206;DHT22;60111;48.286;7.812;2024-02-15T15:33:26;14.70;70.90
72206;DHT22;60111;48.286;7.812;2024-02-15T15:36:00;14.70;70.70
72206;DHT22;60111;48.286;7.812;2024-02-15T15:38:32;14.60;70.70
72206;DHT22;60111;48.286;7.812;2024-02-15T15:41:07;14.60;70.80
72206;DHT22;60111;48.286;7.812;2024-02-15T15:43:40;14.60;71.00
72206;DHT22;60111;48.286;7.812;2024-02-15T15:46:13;14.50;71.30
72206;DHT22;60111;48.286;7.812;2024-02-15T15:48:46;14.50;71.50
72206;DHT22;60111;48.286;7.812;2024-02-15T15:51:19;14.40;71.30
72206;DHT22;60111;48.286;7.812;2024-02-15T15:53:51;14.50;71.40
72206;DHT22;60111;48.286;7.812;2024-02-15T15:56:26;14.40;71.50
72206;DHT22;60111;48.286;7.812;2024-02-15T15:58:58;14.40;71.40
72206;DHT22;60111;48.286;7.812;2024-02-15T16:01:31;14.40;71.20
72206;DHT22;60111;48.286;7.812;2024-02-15T16:04:04;14.30;70.90
72206;DHT22;60111;48.286;7.812;2024-02-15T16:06:36;14.30;70.60
72206;DHT22;60111;48.286;7.812;2024-02-15T16:09:10;14.30;70.40
72206;DHT22;60111;48.286;7.812;2024-02-15T16:11:42;14.20;70.60
72206;DHT22;60111;48.286;7.812;2024-02-15T16:14:15;14.20;70.30
72206;DHT22;60111;48.286;7.812;2024-02-15T16:16:48;14.10;70.40
72206;DHT22;60111;48.286;7.812;2024-02-15T16:19:21;14.10;70.70
72206;DHT22;60111;48.286;7.812;2024-02-15T16:21:54;14.00;70.90
72206;DHT22;60111;48.286;7.812;2024-02-15T16:24:27;14.00;70.90
72206;DHT22;60111;48.286;7.812;2024-02-15T16:27:00;13.90;70.90
72206;DHT22;60111;48.286;7.812;2024-02-15T16:29:37;13.90;71.10
72206;DHT22;60111;48.286;7.812;2024-02-15T16:32:09;13.80;71.40
72206;DHT22;60111;48.286;7.812;2024-02-15T16:34:42;13.70;71.80
72206;DHT22;60111;48.286;7.812;2024-02-15T16:37:15;13.70;72.00
72206;DHT22;60111;48.286;7.812;2024-02-15T16:39:48;13.60;72.10
72206;DHT22;60111;48.286;7.812;2024-02-15T16:42:20;13.50;72.00
72206;DHT22;60111;48.286;7.812;2024-02-15T16:44:53;13.50;72.20
72206;DHT22;60111;48.286;7.812;2024-02-15T16:47:27;13.40;72.60